sensor_id;sensor_type;location;lat;lon;timestamp;P1;durP1;ratioP1;P2;durP2;ratioP2
55678;SDS011;41573;51.446;-2.018;2023-05-10T04:10:06;7.07;;;4.60;;
55678;SDS011;41573;51.446;-2.018;2023-05-10T04:12:32;6.05;;;4.03;;
55678;SDS011;41573;51.446;-2.018;2023-05-10T04:14:57;6.85;;;4.00;;
55678;SDS011;41573;51.446;-2.018;2023-05-10T04:17:26;5.45;;;3.92;;
55678;SDS011;41573;51.446;-2.018;2023-05-10T04:19:51;4.55;;;2.97;;
55678;SDS011;41573;51.446;-2.018;2023-05-10T04:22:19;8.15;;;3.83;;
55678;SDS011;41573;51.446;-2.018;2023-05-10T04:24:45;3.78;;;2.78;;
55678;SDS011;41573;51.446;-2.018;2023-05-10T04:27:11;9.30;;;3.53;;
55678;SDS011;41573;51.446;-2.018;2023-05-10T04:29:36;6.47;;;4.38;;
55678;SDS011;41573;51.446;-2.018;2023-05-10T04:32:02;4.40;;;2.90;;
55678;SDS011;41573;51.446;-2.018;2023-05-10T04:34:28;5.72;;;4.03;;
55678;SDS011;41573;51.446;-2.018;2023-05-10T04:36:54;4.47;;;3.22;;
55678;SDS011;41573;51.446;-2.018;2023-05-10T04:39:19;4.03;;;2.08;;
55678;SDS011;41573;51.446;-2.018;2023-05-10T04:41:45;6.07;;;3.42;;
55678;SDS011;41573;51.446;-2.018;2023-05-10T04:44:10;6.53;;;3.15;;
55678;SDS011;41573;51.446;-2.018;2023-05-10T04:46:36;5.43;;;3.05;;
55678;SDS011;41573;51.446;-2.018;2023-05-10T04:49:01;5.28;;;3.55;;
55678;SDS011;41573;51.446;-2.018;2023-05-10T04:51:26;5.90;;;3.33;;
55678;SDS011;41573;51.446;-2.018;2023-05-10T04:53:52;6.85;;;3.17;;
55678;SDS011;41573;51.446;-2.018;2023-05-10T04:56:17;5.30;;;3.53;;
55678;SDS011;41573;51.446;-2.018;2023-05-10T04:58:42;3.75;;;2.97;;
55678;SDS011;41573;51.446;-2.018;2023-05-10T05:01:08;9.13;;;3.50;;
55678;SDS011;41573;51.446;-2.018;2023-05-10T05:03:35;5.20;;;3.15;;
55678;SDS011;41573;51.446;-2.018;2023-05-10T05:06:03;5.75;;;3.33;;
55678;SDS011;41573;51.446;-2.018;2023-05-10T05:08:29;9.40;;;4.10;;
55678;SDS011;41573;51.446;-2.018;2023-05-10T05:10:55;9.65;;;3.28;;
55678;SDS011;41573;51.446;-2.018;2023-05-10T05:13:20;6.05;;;3.65;;
55678;SDS011;41573;51.446;-2.018;2023-05-10T05:15:46;3.80;;;2.70;;
55678;SDS011;41573;51.446;-2.018;2023-05-10T05:18:11;6.55;;;3.20;;
55678;SDS011;41573;51.446;-2.018;2023-05-10T05:20:37;6.65;;;4.43;;
55678;SDS011;41573;51.446;-2.018;2023-05-10T05:23:02;5.78;;;2.97;;
55678;SDS011;41573;51.446;-2.018;2023-05-10T05:25:29;7.28;;;3.63;;
55678;SDS011;41573;51.446;-2.018;2023-05-10T05:27:56;5.32;;;3.67;;
55678;SDS011;41573;51.446;-2.018;2023-05-10T05:30:22;4.35;;;3.10;;
55678;SDS011;41573;51.446;-2.018;2023-05-10T05:32:47;3.75;;;2.53;;
55678;SDS011;41573;51.446;-2.018;2023-05-10T05:35:13;6.28;;;4.28;;
55678;SDS011;41573;51.446;-2.018;2023-05-10T05:37:38;5.32;;;3.53;;
55678;SDS011;41573;51.446;-2.018;2023-05-10T05:40:05;5.45;;;2.95;;
55678;SDS011;41573;51.446;-2.018;2023-05-10T05:42:38;5.22;;;3.33;;
55678;SDS011;41573;51.446;-2.018;2023-05-10T05:45:03;5.03;;;3.47;;
55678;SDS011;41573;51.446;-2.018;2023-05-10T05:47:30;4.68;;;2.78;;
55678;SDS011;41573;51.446;-2.018;2023-05-10T05:49:55;3.33;;;2.67;;
55678;SDS011;41573;51.446;-2.018;2023-05-10T05:52:21;4.97;;;2.80;;
55678;SDS011;41573;51.446;-2.018;2023-05-10T05:54:46;2.90;;;2.13;;
55678;SDS011;41573;51.446;-2.018;2023-05-10T05:57:11;6.22;;;3.38;;
55678;SDS011;41573;51.446;-2.018;2023-05-10T05:59:37;6.95;;;2.50;;
55678;SDS011;41573;51.446;-2.018;2023-05-10T06:04:32;4.22;;;2.65;;
55678;SDS011;41573;51.446;-2.018;2023-05-10T06:06:57;6.38;;;3.63;;
55678;SDS011;41573;51.446;-2.018;2023-05-10T06:09:23;5.75;;;3.80;;
55678;SDS011;41573;51.446;-2.018;2023-05-10T06:11:49;6.95;;;4.35;;
55678;SDS011;41573;51.446;-2.018;2023-05-10T06:14:14;10.77;;;4.65;;
55678;SDS011;41573;51.446;-2.018;2023-05-10T06:16:40;6.13;;;4.07;;
55678;SDS011;41573;51.446;-2.018;2023-05-10T06:19:06;5.43;;;3.15;;
55678;SDS011;41573;51.446;-2.018;2023-05-10T06:21:31;10.55;;;4.03;;
55678;SDS011;41573;51.446;-2.018;2023-05-10T06:23:56;8.32;;;4.40;;
55678;SDS011;41573;51.446;-2.018;2023-05-10T06:26:22;8.43;;;3.95;;
55678;SDS011;41573;51.446;-2.018;2023-05-10T06:28:47;7.18;;;4.38;;
55678;SDS011;41573;51.446;-2.018;2023-05-10T06:31:13;9.20;;;4.20;;
55678;SDS011;41573;51.446;-2.018;2023-05-10T06:33:38;10.02;;;3.35;;
55678;SDS011;41573;51.446;-2.018;2023-05-10T06:36:03;6.95;;;4.25;;
55678;SDS011;41573;51.446;-2.018;2023-05-10T06:38:29;7.38;;;3.33;;
55678;SDS011;41573;51.446;-2.018;2023-05-10T06:40:55;4.70;;;2.80;;
55678;SDS011;41573;51.446;-2.018;2023-05-10T06:43:20;6.97;;;4.00;;
55678;SDS011;41573;51.446;-2.018;2023-05-10T06:45:45;5.88;;;3.50;;
55678;SDS011;41573;51.446;-2.018;2023-05-10T06:48:12;9.80;;;4.28;;
55678;SDS011;41573;51.446;-2.018;2023-05-10T06:50:37;15.52;;;4.00;;
55678;SDS011;41573;51.446;-2.018;2023-05-10T06:53:03;7.80;;;3.40;;
55678;SDS011;41573;51.446;-2.018;2023-05-10T06:55:28;7.20;;;3.20;;
55678;SDS011;41573;51.446;-2.018;2023-05-10T06:57:54;7.15;;;3.97;;
55678;SDS011;41573;51.446;-2.018;2023-05-10T07:00:19;8.30;;;4.40;;
55678;SDS011;41573;51.446;-2.018;2023-05-10T07:02:45;7.80;;;4.10;;
55678;SDS011;41573;51.446;-2.018;2023-05-10T07:05:11;7.32;;;3.42;;
55678;SDS011;41573;51.446;-2.018;2023-05-10T07:07:37;7.45;;;3.65;;
55678;SDS011;41573;51.446;-2.018;2023-05-10T07:10:02;9.32;;;3.65;;
55678;SDS011;41573;51.446;-2.018;2023-05-10T07:12:28;9.15;;;3.92;;
55678;SDS011;41573;51.446;-2.018;2023-05-10T07:14:54;6.47;;;3.25;;
55678;SDS011;41573;51.446;-2.018;2023-05-10T07:17:19;6.03;;;3.40;;
55678;SDS011;41573;51.446;-2.018;2023-05-10T07:19:44;10.10;;;3.05;;
55678;SDS011;41573;51.446;-2.018;2023-05-10T07:22:10;10.32;;;3.15;;
55678;SDS011;41573;51.446;-2.018;2023-05-10T07:24:35;9.55;;;3.40;;
55678;SDS011;41573;51.446;-2.018;2023-05-10T07:27:01;7.85;;;2.50;;
55678;SDS011;41573;51.446;-2.018;2023-05-10T07:29:26;7.95;;;3.35;;
55678;SDS011;41573;51.446;-2.018;2023-05-10T07:31:52;4.45;;;2.60;;
55678;SDS011;41573;51.446;-2.018;2023-05-10T07:34:18;3.80;;;2.45;;
55678;SDS011;41573;51.446;-2.018;2023-05-10T07:36:43;6.70;;;3.38;;
55678;SDS011;41573;51.446;-2.018;2023-05-10T07:39:09;6.25;;;2.80;;
55678;SDS011;41573;51.446;-2.018;2023-05-10T07:41:34;6.88;;;2.65;;
55678;SDS011;41573;51.446;-2.018;2023-05-10T07:43:59;4.72;;;2.22;;
55678;SDS011;41573;51.446;-2.018;2023-05-10T07:46:25;4.85;;;2.72;;
55678;SDS011;41573;51.446;-2.018;2023-05-10T07:48:50;4.55;;;2.03;;
55678;SDS011;41573;51.446;-2.018;2023-05-10T07:51:16;2.85;;;1.80;;
55678;SDS011;41573;51.446;-2.018;2023-05-10T07:53:41;5.82;;;1.52;;
55678;SDS011;41573;51.446;-2.018;2023-05-10T07:56:26;4.03;;;2.22;;
55678;SDS011;41573;51.446;-2.018;2023-05-10T07:59:01;3.47;;;1.83;;
55678;SDS011;41573;51.446;-2.018;2023-05-10T08:01:33;6.53;;;2.17;;
55678;SDS011;41573;51.446;-2.018;2023-05-10T08:03:59;8.70;;;1.75;;
55678;SDS011;41573;51.446;-2.018;2023-05-10T08:06:25;3.22;;;1.42;;
55678;SDS011;41573;51.446;-2.018;2023-05-10T08:08:58;5.22;;;2.75;;
55678;SDS011;41573;51.446;-2.018;2023-05-10T08:11:24;3.15;;;1.48;;
55678;SDS011;41573;51.446;-2.018;2023-05-10T08:13:50;3.40;;;1.52;;
55678;SDS011;41573;51.446;-2.018;2023-05-10T08:16:16;4.85;;;1.10;;
55678;SDS011;41573;51.446;-2.018;2023-05-10T08:18:43;8.95;;;1.80;;
55678;SDS011;41573;51.446;-2.018;2023-05-10T08:21:10;3.55;;;1.70;;
55678;SDS011;41573;51.446;-2.018;2023-05-10T08:23:36;4.28;;;2.00;;
55678;SDS011;41573;51.446;-2.018;2023-05-10T08:26:02;6.55;;;1.63;;
55678;SDS011;41573;51.446;-2.018;2023-05-10T08:28:27;3.08;;;1.50;;
55678;SDS011;41573;51.446;-2.018;2023-05-10T08:30:52;1.45;;;0.95;;
55678;SDS011;41573;51.446;-2.018;2023-05-10T08:33:18;2.85;;;1.75;;
55678;SDS011;41573;51.446;-2.018;2023-05-10T08:35:44;2.97;;;1.67;;
55678;SDS011;41573;51.446;-2.018;2023-05-10T08:38:10;4.72;;;1.58;;
55678;SDS011;41573;51.446;-2.018;2023-05-10T08:40:36;3.13;;;1.85;;
55678;SDS011;41573;51.446;-2.018;2023-05-10T08:48:02;1.70;;;1.10;;
55678;SDS011;41573;51.446;-2.018;2023-05-10T08:50:30;2.38;;;0.90;;
55678;SDS011;41573;51.446;-2.018;2023-05-10T08:52:57;3.88;;;2.30;;
55678;SDS011;41573;51.446;-2.018;2023-05-10T08:55:26;2.00;;;1.25;;
55678;SDS011;41573;51.446;-2.018;2023-05-10T08:57:52;2.25;;;1.40;;
55678;SDS011;41573;51.446;-2.018;2023-05-10T09:00:18;2.78;;;0.98;;
55678;SDS011;41573;51.446;-2.018;2023-05-10T09:02:44;2.15;;;1.08;;
55678;SDS011;41573;51.446;-2.018;2023-05-10T09:05:10;6.65;;;2.13;;
55678;SDS011;41573;51.446;-2.018;2023-05-10T09:07:37;4.32;;;1.60;;
55678;SDS011;41573;51.446;-2.018;2023-05-10T09:10:02;3.72;;;1.58;;
55678;SDS011;41573;51.446;-2.018;2023-05-10T09:12:29;7.85;;;1.70;;
55678;SDS011;41573;51.446;-2.018;2023-05-10T09:14:54;3.58;;;1.38;;
55678;SDS011;41573;51.446;-2.018;2023-05-10T09:17:23;3.30;;;1.63;;
55678;SDS011;41573;51.446;-2.018;2023-05-10T09:19:50;1.73;;;1.30;;
55678;SDS011;41573;51.446;-2.018;2023-05-10T09:22:22;3.70;;;1.45;;
55678;SDS011;41573;51.446;-2.018;2023-05-10T09:24:52;4.45;;;1.60;;
55678;SDS011;41573;51.446;-2.018;2023-05-10T09:27:39;3.63;;;1.45;;
55678;SDS011;41573;51.446;-2.018;2023-05-10T09:30:06;2.97;;;1.20;;
55678;SDS011;41573;51.446;-2.018;2023-05-10T09:32:36;3.10;;;1.52;;
55678;SDS011;41573;51.446;-2.018;2023-05-10T09:35:12;2.55;;;1.30;;
55678;SDS011;41573;51.446;-2.018;2023-05-10T09:37:42;1.55;;;1.15;;
55678;SDS011;41573;51.446;-2.018;2023-05-10T09:40:13;1.58;;;1.40;;
55678;SDS011;41573;51.446;-2.018;2023-05-10T09:42:41;3.03;;;1.67;;
55678;SDS011;41573;51.446;-2.018;2023-05-10T09:45:08;1.98;;;1.30;;
55678;SDS011;41573;51.446;-2.018;2023-05-10T09:47:34;1.10;;;1.00;;
55678;SDS011;41573;51.446;-2.018;2023-05-10T09:50:01;1.38;;;1.20;;
55678;SDS011;41573;51.446;-2.018;2023-05-10T09:52:29;4.80;;;1.75;;
55678;SDS011;41573;51.446;-2.018;2023-05-10T09:54:55;5.20;;;1.73;;
55678;SDS011;41573;51.446;-2.018;2023-05-10T09:57:21;6.32;;;2.10;;
55678;SDS011;41573;51.446;-2.018;2023-05-10T09:59:48;2.22;;;1.30;;
55678;SDS011;41573;51.446;-2.018;2023-05-10T10:02:14;5.57;;;1.20;;
55678;SDS011;41573;51.446;-2.018;2023-05-10T10:04:40;4.43;;;1.15;;
55678;SDS011;41573;51.446;-2.018;2023-05-10T10:07:06;3.50;;;1.60;;
55678;SDS011;41573;51.446;-2.018;2023-05-10T10:09:32;5.20;;;1.75;;
55678;SDS011;41573;51.446;-2.018;2023-05-10T10:12:02;2.38;;;1.45;;
55678;SDS011;41573;51.446;-2.018;2023-05-10T10:16:54;4.20;;;1.27;;
55678;SDS011;41573;51.446;-2.018;2023-05-10T10:19:20;5.53;;;1.75;;
55678;SDS011;41573;51.446;-2.018;2023-05-10T10:21:47;1.40;;;1.10;;
55678;SDS011;41573;51.446;-2.018;2023-05-10T10:24:13;2.17;;;1.60;;
55678;SDS011;41573;51.446;-2.018;2023-05-10T10:26:38;9.13;;;1.20;;
55678;SDS011;41573;51.446;-2.018;2023-05-10T10:32:37;2.08;;;0.88;;
55678;SDS011;41573;51.446;-2.018;2023-05-10T10:35:07;3.38;;;1.25;;
55678;SDS011;41573;51.446;-2.018;2023-05-10T10:37:47;2.65;;;1.50;;
55678;SDS011;41573;51.446;-2.018;2023-05-10T10:40:34;3.10;;;1.30;;
55678;SDS011;41573;51.446;-2.018;2023-05-10T10:43:20;1.38;;;1.10;;
55678;SDS011;41573;51.446;-2.018;2023-05-10T10:48:48;4.25;;;1.20;;
55678;SDS011;41573;51.446;-2.018;2023-05-10T10:51:16;2.58;;;1.30;;
55678;SDS011;41573;51.446;-2.018;2023-05-10T10:53:42;1.45;;;1.13;;
55678;SDS011;41573;51.446;-2.018;2023-05-10T10:56:09;4.93;;;1.33;;
55678;SDS011;41573;51.446;-2.018;2023-05-10T10:58:37;3.45;;;1.00;;
55678;SDS011;41573;51.446;-2.018;2023-05-10T11:01:16;1.67;;;0.93;;
55678;SDS011;41573;51.446;-2.018;2023-05-10T11:06:40;2.10;;;0.85;;
55678;SDS011;41573;51.446;-2.018;2023-05-10T11:09:07;7.75;;;1.63;;
55678;SDS011;41573;51.446;-2.018;2023-05-10T11:11:34;5.72;;;1.70;;
55678;SDS011;41573;51.446;-2.018;2023-05-10T11:14:03;2.05;;;1.10;;
55678;SDS011;41573;51.446;-2.018;2023-05-10T11:16:40;2.70;;;1.10;;
55678;SDS011;41573;51.446;-2.018;2023-05-10T11:19:08;7.65;;;1.48;;
55678;SDS011;41573;51.446;-2.018;2023-05-10T11:21:44;1.60;;;1.15;;
55678;SDS011;41573;51.446;-2.018;2023-05-10T11:24:13;2.38;;;1.40;;
55678;SDS011;41573;51.446;-2.018;2023-05-10T11:26:43;2.00;;;0.95;;
55678;SDS011;41573;51.446;-2.018;2023-05-10T11:29:09;3.42;;;1.58;;
55678;SDS011;41573;51.446;-2.018;2023-05-10T11:31:35;2.47;;;1.15;;
55678;SDS011;41573;51.446;-2.018;2023-05-10T11:34:06;2.65;;;0.77;;
55678;SDS011;41573;51.446;-2.018;2023-05-10T11:36:33;4.53;;;1.20;;
55678;SDS011;41573;51.446;-2.018;2023-05-10T11:39:00;2.40;;;0.77;;
55678;SDS011;41573;51.446;-2.018;2023-05-10T11:41:28;2.55;;;1.48;;
55678;SDS011;41573;51.446;-2.018;2023-05-10T11:43:54;1.55;;;1.08;;
55678;SDS011;41573;51.446;-2.018;2023-05-10T11:46:21;4.95;;;1.58;;
55678;SDS011;41573;51.446;-2.018;2023-05-10T11:48:58;1.38;;;0.52;;
55678;SDS011;41573;51.446;-2.018;2023-05-10T11:51:32;2.45;;;0.88;;
55678;SDS011;41573;51.446;-2.018;2023-05-10T11:53:59;0.77;;;0.60;;
55678;SDS011;41573;51.446;-2.018;2023-05-10T11:56:24;3.03;;;1.33;;
55678;SDS011;41573;51.446;-2.018;2023-05-10T11:58:56;0.75;;;0.70;;
55678;SDS011;41573;51.446;-2.018;2023-05-10T12:01:23;2.60;;;0.93;;
55678;SDS011;41573;51.446;-2.018;2023-05-10T12:03:50;1.25;;;0.82;;
55678;SDS011;41573;51.446;-2.018;2023-05-10T12:06:18;1.48;;;0.63;;
55678;SDS011;41573;51.446;-2.018;2023-05-10T12:08:44;3.17;;;1.00;;
55678;SDS011;41573;51.446;-2.018;2023-05-10T12:11:11;0.73;;;0.70;;
55678;SDS011;41573;51.446;-2.018;2023-05-10T12:13:39;1.08;;;0.63;;
55678;SDS011;41573;51.446;-2.018;2023-05-10T12:16:12;3.85;;;1.17;;
55678;SDS011;41573;51.446;-2.018;2023-05-10T12:18:48;2.78;;;1.20;;
55678;SDS011;41573;51.446;-2.018;2023-05-10T12:21:14;1.05;;;0.95;;
55678;SDS011;41573;51.446;-2.018;2023-05-10T12:23:40;0.88;;;0.50;;
55678;SDS011;41573;51.446;-2.018;2023-05-10T12:26:08;1.48;;;0.98;;
55678;SDS011;41573;51.446;-2.018;2023-05-10T12:28:34;1.98;;;0.80;;
55678;SDS011;41573;51.446;-2.018;2023-05-10T12:31:00;0.43;;;0.40;;
55678;SDS011;41573;51.446;-2.018;2023-05-10T12:33:26;0.75;;;0.70;;
55678;SDS011;41573;51.446;-2.018;2023-05-10T12:35:52;1.48;;;0.57;;
55678;SDS011;41573;51.446;-2.018;2023-05-10T12:40:55;1.33;;;0.93;;
55678;SDS011;41573;51.446;-2.018;2023-05-10T12:43:21;1.42;;;0.88;;
55678;SDS011;41573;51.446;-2.018;2023-05-10T12:45:47;2.22;;;0.50;;
55678;SDS011;41573;51.446;-2.018;2023-05-10T12:48:14;1.85;;;0.65;;
55678;SDS011;41573;51.446;-2.018;2023-05-10T12:50:40;0.82;;;0.65;;
55678;SDS011;41573;51.446;-2.018;2023-05-10T12:53:05;1.05;;;0.95;;
55678;SDS011;41573;51.446;-2.018;2023-05-10T12:55:31;1.10;;;0.47;;
55678;SDS011;41573;51.446;-2.018;2023-05-10T12:57:56;0.80;;;0.80;;
55678;SDS011;41573;51.446;-2.018;2023-05-10T13:00:21;3.60;;;1.13;;
55678;SDS011;41573;51.446;-2.018;2023-05-10T13:02:47;2.15;;;0.80;;
55678;SDS011;41573;51.446;-2.018;2023-05-10T13:05:12;0.98;;;0.63;;
55678;SDS011;41573;51.446;-2.018;2023-05-10T13:07:38;0.70;;;0.52;;
55678;SDS011;41573;51.446;-2.018;2023-05-10T13:10:04;1.70;;;0.68;;
55678;SDS011;41573;51.446;-2.018;2023-05-10T13:12:31;2.95;;;0.85;;
55678;SDS011;41573;51.446;-2.018;2023-05-10T13:14:56;1.42;;;0.75;;
55678;SDS011;41573;51.446;-2.018;2023-05-10T13:17:22;2.45;;;1.10;;
55678;SDS011;41573;51.446;-2.018;2023-05-10T13:19:47;2.40;;;0.52;;
55678;SDS011;41573;51.446;-2.018;2023-05-10T13:22:13;0.65;;;0.65;;
55678;SDS011;41573;51.446;-2.018;2023-05-10T13:24:38;0.52;;;0.47;;
55678;SDS011;41573;51.446;-2.018;2023-05-10T13:27:03;0.70;;;0.68;;
55678;SDS011;41573;51.446;-2.018;2023-05-10T13:29:29;1.17;;;0.40;;
55678;SDS011;41573;51.446;-2.018;2023-05-10T13:31:54;0.32;;;0.20;;
55678;SDS011;41573;51.446;-2.018;2023-05-10T13:34:19;1.60;;;0.47;;
55678;SDS011;41573;51.446;-2.018;2023-05-10T13:36:46;2.28;;;0.90;;
55678;SDS011;41573;51.446;-2.018;2023-05-10T13:39:11;3.75;;;1.00;;
55678;SDS011;41573;51.446;-2.018;2023-05-10T13:41:37;2.97;;;0.55;;
55678;SDS011;41573;51.446;-2.018;2023-05-10T13:44:02;0.50;;;0.30;;
55678;SDS011;41573;51.446;-2.018;2023-05-10T13:46:28;0.50;;;0.30;;
55678;SDS011;41573;51.446;-2.018;2023-05-10T13:48:55;1.58;;;0.50;;
55678;SDS011;41573;51.446;-2.018;2023-05-10T13:51:21;2.25;;;0.93;;
55678;SDS011;41573;51.446;-2.018;2023-05-10T13:53:47;1.00;;;0.60;;
55678;SDS011;41573;51.446;-2.018;2023-05-10T13:56:13;1.70;;;0.43;;
55678;SDS011;41573;51.446;-2.018;2023-05-10T13:58:38;0.47;;;0.40;;
55678;SDS011;41573;51.446;-2.018;2023-05-10T14:01:04;1.40;;;0.43;;
55678;SDS011;41573;51.446;-2.018;2023-05-10T14:03:30;2.38;;;0.40;;
55678;SDS011;41573;51.446;-2.018;2023-05-10T14:05:55;0.98;;;0.35;;
55678;SDS011;41573;51.446;-2.018;2023-05-10T14:08:20;0.20;;;0.20;;
55678;SDS011;41573;51.446;-2.018;2023-05-10T14:10:46;0.90;;;0.28;;
55678;SDS011;41573;51.446;-2.018;2023-05-10T14:13:11;3.10;;;0.38;;
55678;SDS011;41573;51.446;-2.018;2023-05-10T14:15:37;0.38;;;0.38;;
55678;SDS011;41573;51.446;-2.018;2023-05-10T14:18:02;0.38;;;0.38;;
55678;SDS011;41573;51.446;-2.018;2023-05-10T14:20:28;1.15;;;0.68;;
55678;SDS011;41573;51.446;-2.018;2023-05-10T14:22:54;0.65;;;0.40;;
55678;SDS011;41573;51.446;-2.018;2023-05-10T14:25:19;1.55;;;0.40;;
55678;SDS011;41573;51.446;-2.018;2023-05-10T14:27:45;1.55;;;0.30;;
55678;SDS011;41573;51.446;-2.018;2023-05-10T14:30:10;0.55;;;0.40;;
55678;SDS011;41573;51.446;-2.018;2023-05-10T14:32:36;1.70;;;0.50;;
55678;SDS011;41573;51.446;-2.018;2023-05-10T14:35:02;1.30;;;0.55;;
55678;SDS011;41573;51.446;-2.018;2023-05-10T14:37:28;1.23;;;0.47;;
55678;SDS011;41573;51.446;-2.018;2023-05-10T14:39:53;0.40;;;0.30;;
55678;SDS011;41573;51.446;-2.018;2023-05-10T14:42:19;0.20;;;0.20;;
55678;SDS011;41573;51.446;-2.018;2023-05-10T14:44:44;2.65;;;0.43;;
55678;SDS011;41573;51.446;-2.018;2023-05-10T14:47:09;2.28;;;0.77;;
55678;SDS011;41573;51.446;-2.018;2023-05-10T14:49:35;2.10;;;0.30;;
55678;SDS011;41573;51.446;-2.018;2023-05-10T14:52:00;0.25;;;0.15;;
55678;SDS011;41573;51.446;-2.018;2023-05-10T14:54:26;0.65;;;0.20;;
55678;SDS011;41573;51.446;-2.018;2023-05-10T14:56:52;0.10;;;0.10;;
55678;SDS011;41573;51.446;-2.018;2023-05-10T14:59:17;2.08;;;0.57;;
55678;SDS011;41573;51.446;-2.018;2023-05-10T15:01:42;0.65;;;0.30;;
55678;SDS011;41573;51.446;-2.018;2023-05-10T15:04:08;0.17;;;0.17;;
55678;SDS011;41573;51.446;-2.018;2023-05-10T15:06:34;0.10;;;0.10;;
55678;SDS011;41573;51.446;-2.018;2023-05-10T15:09:00;0.57;;;0.20;;
55678;SDS011;41573;51.446;-2.018;2023-05-10T15:11:27;0.38;;;0.20;;
55678;SDS011;41573;51.446;-2.018;2023-05-10T15:13:53;0.30;;;0.30;;
55678;SDS011;41573;51.446;-2.018;2023-05-10T15:16:18;0.10;;;0.10;;
55678;SDS011;41573;51.446;-2.018;2023-05-10T15:18:44;0.52;;;0.22;;
55678;SDS011;41573;51.446;-2.018;2023-05-10T15:21:09;0.17;;;0.17;;
55678;SDS011;41573;51.446;-2.018;2023-05-10T15:23:35;0.10;;;0.10;;
55678;SDS011;41573;51.446;-2.018;2023-05-10T15:26:00;0.10;;;0.10;;
55678;SDS011;41573;51.446;-2.018;2023-05-10T15:28:26;0.25;;;0.25;;
55678;SDS011;41573;51.446;-2.018;2023-05-10T15:30:51;0.20;;;0.20;;
55678;SDS011;41573;51.446;-2.018;2023-05-10T15:33:16;0.30;;;0.30;;
55678;SDS011;41573;51.446;-2.018;2023-05-10T15:35:42;0.20;;;0.10;;
55678;SDS011;41573;51.446;-2.018;2023-05-10T15:38:09;0.65;;;0.20;;
55678;SDS011;41573;51.446;-2.018;2023-05-10T15:40:34;0.85;;;0.25;;
55678;SDS011;41573;51.446;-2.018;2023-05-10T15:43:00;0.30;;;0.30;;
55678;SDS011;41573;51.446;-2.018;2023-05-10T15:45:25;1.55;;;0.35;;
55678;SDS011;41573;51.446;-2.018;2023-05-10T15:47:51;0.10;;;0.10;;
55678;SDS011;41573;51.446;-2.018;2023-05-10T15:50:17;0.22;;;0.22;;
55678;SDS011;41573;51.446;-2.018;2023-05-10T15:52:42;0.63;;;0.20;;
55678;SDS011;41573;51.446;-2.018;2023-05-10T15:55:08;0.20;;;0.20;;
55678;SDS011;41573;51.446;-2.018;2023-05-10T15:57:37;0.28;;;0.28;;
55678;SDS011;41573;51.446;-2.018;2023-05-10T16:00:04;0.65;;;0.20;;
55678;SDS011;41573;51.446;-2.018;2023-05-10T16:02:30;0.10;;;0.10;;
55678;SDS011;41573;51.446;-2.018;2023-05-10T16:04:56;2.38;;;0.32;;
55678;SDS011;41573;51.446;-2.018;2023-05-10T16:07:21;0.30;;;0.20;;
55678;SDS011;41573;51.446;-2.018;2023-05-10T16:09:46;0.32;;;0.13;;
55678;SDS011;41573;51.446;-2.018;2023-05-10T16:12:13;0.10;;;0.10;;
55678;SDS011;41573;51.446;-2.018;2023-05-10T16:14:39;0.70;;;0.30;;
55678;SDS011;41573;51.446;-2.018;2023-05-10T16:17:04;1.55;;;0.70;;
55678;SDS011;41573;51.446;-2.018;2023-05-10T16:19:30;2.33;;;0.57;;
55678;SDS011;41573;51.446;-2.018;2023-05-10T16:21:55;1.23;;;0.32;;
55678;SDS011;41573;51.446;-2.018;2023-05-10T16:24:21;0.45;;;0.20;;
55678;SDS011;41573;51.446;-2.018;2023-05-10T16:26:46;0.20;;;0.17;;
55678;SDS011;41573;51.446;-2.018;2023-05-10T16:29:12;0.52;;;0.20;;
55678;SDS011;41573;51.446;-2.018;2023-05-10T16:31:37;1.00;;;0.38;;
55678;SDS011;41573;51.446;-2.018;2023-05-10T16:34:03;0.17;;;0.17;;
55678;SDS011;41573;51.446;-2.018;2023-05-10T16:36:28;1.98;;;0.65;;
55678;SDS011;41573;51.446;-2.018;2023-05-10T16:38:54;0.55;;;0.28;;
55678;SDS011;41573;51.446;-2.018;2023-05-10T16:41:19;0.73;;;0.57;;
55678;SDS011;41573;51.446;-2.018;2023-05-10T16:43:45;0.60;;;0.30;;
55678;SDS011;41573;51.446;-2.018;2023-05-10T16:46:10;1.65;;;0.40;;
55678;SDS011;41573;51.446;-2.018;2023-05-10T16:48:36;0.28;;;0.28;;
55678;SDS011;41573;51.446;-2.018;2023-05-10T16:51:02;0.10;;;0.10;;
55678;SDS011;41573;51.446;-2.018;2023-05-10T16:53:28;0.30;;;0.30;;
55678;SDS011;41573;51.446;-2.018;2023-05-10T16:55:55;1.23;;;0.60;;
55678;SDS011;41573;51.446;-2.018;2023-05-10T16:58:20;0.40;;;0.40;;
55678;SDS011;41573;51.446;-2.018;2023-05-10T17:00:46;2.92;;;0.28;;
55678;SDS011;41573;51.446;-2.018;2023-05-10T17:03:11;0.88;;;0.30;;
55678;SDS011;41573;51.446;-2.018;2023-05-10T17:05:36;0.88;;;0.40;;
55678;SDS011;41573;51.446;-2.018;2023-05-10T17:08:02;0.20;;;0.20;;
55678;SDS011;41573;51.446;-2.018;2023-05-10T17:10:27;0.20;;;0.20;;
55678;SDS011;41573;51.446;-2.018;2023-05-10T17:12:53;2.13;;;0.40;;
55678;SDS011;41573;51.446;-2.018;2023-05-10T17:15:18;2.13;;;0.70;;
55678;SDS011;41573;51.446;-2.018;2023-05-10T17:17:44;0.30;;;0.30;;
55678;SDS011;41573;51.446;-2.018;2023-05-10T17:20:11;0.20;;;0.20;;
55678;SDS011;41573;51.446;-2.018;2023-05-10T17:22:36;0.38;;;0.38;;
55678;SDS011;41573;51.446;-2.018;2023-05-10T17:25:01;0.30;;;0.30;;
55678;SDS011;41573;51.446;-2.018;2023-05-10T17:27:27;0.75;;;0.52;;
55678;SDS011;41573;51.446;-2.018;2023-05-10T17:29:54;2.65;;;0.60;;
55678;SDS011;41573;51.446;-2.018;2023-05-10T17:32:23;0.60;;;0.47;;
55678;SDS011;41573;51.446;-2.018;2023-05-10T17:34:49;1.40;;;0.30;;
55678;SDS011;41573;51.446;-2.018;2023-05-10T17:37:14;2.75;;;0.52;;
55678;SDS011;41573;51.446;-2.018;2023-05-10T17:39:39;0.55;;;0.28;;
55678;SDS011;41573;51.446;-2.018;2023-05-10T17:42:05;0.32;;;0.32;;
55678;SDS011;41573;51.446;-2.018;2023-05-10T17:44:30;0.20;;;0.20;;
55678;SDS011;41573;51.446;-2.018;2023-05-10T17:46:56;0.57;;;0.40;;
55678;SDS011;41573;51.446;-2.018;2023-05-10T17:49:21;0.68;;;0.47;;
55678;SDS011;41573;51.446;-2.018;2023-05-10T17:51:46;1.25;;;0.40;;
55678;SDS011;41573;51.446;-2.018;2023-05-10T17:54:12;0.20;;;0.20;;
55678;SDS011;41573;51.446;-2.018;2023-05-10T17:56:39;2.83;;;0.45;;
55678;SDS011;41573;51.446;-2.018;2023-05-10T17:59:05;1.85;;;0.47;;
55678;SDS011;41573;51.446;-2.018;2023-05-10T18:01:30;0.20;;;0.20;;
55678;SDS011;41573;51.446;-2.018;2023-05-10T18:03:55;0.10;;;0.10;;
55678;SDS011;41573;51.446;-2.018;2023-05-10T18:06:21;0.30;;;0.30;;
55678;SDS011;41573;51.446;-2.018;2023-05-10T18:08:46;0.20;;;0.20;;
55678;SDS011;41573;51.446;-2.018;2023-05-10T18:11:12;0.38;;;0.32;;
55678;SDS011;41573;51.446;-2.018;2023-05-10T18:13:37;0.63;;;0.28;;
55678;SDS011;41573;51.446;-2.018;2023-05-10T18:16:03;0.95;;;0.40;;
55678;SDS011;41573;51.446;-2.018;2023-05-10T18:18:33;0.30;;;0.30;;
55678;SDS011;41573;51.446;-2.018;2023-05-10T18:20:59;0.20;;;0.20;;
55678;SDS011;41573;51.446;-2.018;2023-05-10T18:23:24;0.32;;;0.30;;
55678;SDS011;41573;51.446;-2.018;2023-05-10T18:25:51;0.22;;;0.20;;
55678;SDS011;41573;51.446;-2.018;2023-05-10T18:28:16;0.20;;;0.20;;
55678;SDS011;41573;51.446;-2.018;2023-05-10T18:30:42;0.93;;;0.30;;
55678;SDS011;41573;51.446;-2.018;2023-05-10T18:33:08;1.55;;;0.57;;
55678;SDS011;41573;51.446;-2.018;2023-05-10T18:35:38;0.32;;;0.20;;
55678;SDS011;41573;51.446;-2.018;2023-05-10T18:38:04;1.93;;;0.57;;
55678;SDS011;41573;51.446;-2.018;2023-05-10T18:40:30;0.30;;;0.30;;
55678;SDS011;41573;51.446;-2.018;2023-05-10T18:42:55;0.28;;;0.28;;
55678;SDS011;41573;51.446;-2.018;2023-05-10T18:45:21;1.35;;;0.73;;
55678;SDS011;41573;51.446;-2.018;2023-05-10T18:47:46;0.32;;;0.32;;
55678;SDS011;41573;51.446;-2.018;2023-05-10T18:50:12;1.92;;;0.57;;
55678;SDS011;41573;51.446;-2.018;2023-05-10T18:52:37;1.10;;;0.60;;
55678;SDS011;41573;51.446;-2.018;2023-05-10T18:55:03;1.05;;;0.30;;
55678;SDS011;41573;51.446;-2.018;2023-05-10T18:57:29;3.42;;;0.57;;
55678;SDS011;41573;51.446;-2.018;2023-05-10T18:59:54;0.20;;;0.20;;